Time;durP1;ratioP1;P1;durP2;ratioP2;P2;SDS_P1;SDS_P2;PMS_P1;PMS_P2;Temp;Humidity;BMP_temperature;BMP_pressure;BME280_temperature;BME280_humidity;BME280_pressure;Samples;Min_cycle;Max_cycle;Signal;HPM_P1;HPM_P2
2022/03/07 00:00:45;;;;;;;7.97;3.78;;;;;;;0.99;92.82;101810.75;5210234;28;20031;-78
2022/03/07 00:03:15;;;;;;;5.32;3.63;;;;;;;0.83;94.51;101816.38;5212277;28;20040;-77
2022/03/07 00:05:45;;;;;;;7.50;3.80;;;;;;;0.78;95.44;101815.41;5210773;28;20039;-77
2022/03/07 00:08:16;;;;;;;8.93;4.18;;;;;;;0.93;95.07;101810.59;5212083;28;20143;-77
2022/03/07 00:10:46;;;;;;;9.23;4.30;;;;;;;0.89;94.48;101808.78;5211858;28;20413;-77
2022/03/07 00:13:16;;;;;;;8.98;4.03;;;;;;;0.99;94.05;101815.91;5215265;28;20028;-78
2022/03/07 00:15:47;;;;;;;7.57;4.03;;;;;;;1.15;91.31;101822.25;5210990;28;20097;-78
2022/03/07 00:18:17;;;;;;;6.78;3.95;;;;;;;1.35;92.90;101811.56;5212252;28;20028;-77
2022/03/07 00:20:47;;;;;;;5.72;3.70;;;;;;;1.20;92.62;101811.22;5209593;28;20036;-77
2022/03/07 00:23:18;;;;;;;6.95;4.20;;;;;;;0.94;95.16;101809.78;5210496;28;20511;-77
2022/03/07 00:25:48;;;;;;;7.35;4.30;;;;;;;0.97;96.03;101802.13;5213555;28;20060;-78
2022/03/07 00:28:18;;;;;;;7.35;4.40;;;;;;;0.94;96.25;101807.22;5215252;28;20035;-78
2022/03/07 00:30:49;;;;;;;6.05;4.20;;;;;;;0.83;96.04;101813.81;5210960;28;20487;-78
2022/03/07 00:33:19;;;;;;;7.75;4.50;;;;;;;1.06;96.19;101816.91;5211070;28;20029;-78
2022/03/07 00:35:49;;;;;;;6.40;3.83;;;;;;;1.16;95.28;101831.72;5212977;28;20037;-77
2022/03/07 00:38:19;;;;;;;6.45;3.92;;;;;;;1.27;93.55;101818.22;5211216;28;20028;-78
2022/03/07 00:40:50;;;;;;;7.32;3.83;;;;;;;1.11;94.11;101823.91;5212683;28;20035;-77
2022/03/07 00:43:21;;;;;;;6.78;4.03;;;;;;;1.22;94.67;101821.56;5211921;28;20025;-77
2022/03/07 00:45:51;;;;;;;7.18;4.20;;;;;;;1.43;93.90;101820.28;5209834;28;20029;-77
2022/03/07 00:48:21;;;;;;;8.82;4.90;;;;;;;1.71;91.36;101816.59;5211264;28;20487;-78
2022/03/07 00:50:53;;;;;;;9.52;4.53;;;;;;;1.71;90.36;101812.28;5212273;28;20049;-78
2022/03/07 00:53:25;;;;;;;7.60;4.15;;;;;;;1.66;87.65;101818.19;5211768;28;20029;-77
2022/03/07 00:55:56;;;;;;;7.30;4.15;;;;;;;1.60;89.02;101812.94;5214090;28;20112;-77
2022/03/07 00:58:26;;;;;;;10.32;4.30;;;;;;;1.59;89.56;101827.50;5210516;28;20188;-77
2022/03/07 01:00:56;;;;;;;8.18;4.22;;;;;;;1.66;89.74;101821.66;5212498;28;20029;-78
2022/03/07 01:03:27;;;;;;;7.53;4.15;;;;;;;1.58;87.87;101815.47;5211135;28;20045;-77
2022/03/07 01:05:57;;;;;;;7.97;3.80;;;;;;;1.58;86.76;101820.63;5213698;28;20056;-78
2022/03/07 01:08:27;;;;;;;7.30;4.20;;;;;;;1.68;86.92;101812.25;5210141;28;20108;-78
2022/03/07 01:10:58;;;;;;;8.88;4.28;;;;;;;1.81;83.09;101809.06;5209475;28;20507;-78
2022/03/07 01:13:29;;;;;;;9.68;4.30;;;;;;;1.87;82.11;101806.59;5212296;28;20036;-77
2022/03/07 01:15:59;;;;;;;7.03;4.20;;;;;;;2.02;81.13;101806.91;5209774;28;20037;-77
2022/03/07 01:18:29;;;;;;;7.95;4.10;;;;;;;2.17;80.39;101804.59;5209093;28;20459;-77
2022/03/07 01:21:00;;;;;;;6.45;4.00;;;;;;;2.10;79.77;101810.47;5208105;28;20375;-78
2022/03/07 01:23:30;;;;;;;11.00;4.53;;;;;;;2.07;81.06;101813.00;5209570;28;20239;-77
2022/03/07 01:26:02;;;;;;;6.75;3.85;;;;;;;2.09;80.92;101806.16;5219473;28;20032;-78
2022/03/07 01:28:32;;;;;;;6.43;4.00;;;;;;;2.09;79.94;101803.56;5216996;28;20021;-77
2022/03/07 01:31:02;;;;;;;6.63;3.75;;;;;;;1.99;80.51;101810.28;5211823;28;20199;-78
2022/03/07 01:33:32;;;;;;;7.93;4.20;;;;;;;2.02;80.98;101809.47;5209835;28;20053;-78
2022/03/07 01:36:03;;;;;;;8.55;4.07;;;;;;;2.23;80.13;101800.41;5213193;28;20043;-78
2022/03/07 01:38:33;;;;;;;6.78;3.67;;;;;;;1.97;80.65;101809.38;5210449;28;20108;-78
2022/03/07 01:41:03;;;;;;;7.85;4.13;;;;;;;1.86;81.03;101804.88;5211950;28;20466;-77
2022/03/07 01:43:34;;;;;;;7.35;4.28;;;;;;;2.12;81.14;101804.50;5209150;28;20025;-78
2022/03/07 01:46:04;;;;;;;6.80;3.90;;;;;;;1.96;80.39;101807.63;5211337;28;20421;-78
2022/03/07 01:48:37;;;;;;;6.60;3.83;;;;;;;1.94;81.00;101793.88;5210658;28;20064;-77
2022/03/07 01:51:10;;;;;;;9.57;4.53;;;;;;;1.84;81.53;101793.66;5211277;28;20302;-77
2022/03/07 01:53:41;;;;;;;6.90;4.18;;;;;;;1.87;82.01;101789.44;5216173;28;20050;-78
2022/03/07 01:56:11;;;;;;;7.05;4.40;;;;;;;1.79;82.82;101785.84;5209026;28;20232;-78
2022/03/07 01:58:42;;;;;;;7.07;4.15;;;;;;;1.94;81.18;101786.13;5211619;28;20111;-77
2022/03/07 02:01:13;;;;;;;8.30;4.43;;;;;;;1.93;81.33;101786.09;5210988;28;20061;-78
2022/03/07 02:03:43;;;;;;;9.48;4.40;;;;;;;1.96;81.77;101771.56;5210433;28;20061;-77
2022/03/07 02:06:13;;;;;;;8.85;4.60;;;;;;;1.85;82.68;101782.53;5218675;28;20028;-78
2022/03/07 02:08:45;;;;;;;7.88;4.28;;;;;;;2.11;82.39;101776.09;5215952;28;20116;-78
2022/03/07 02:11:15;;;;;;;7.85;4.22;;;;;;;2.17;81.68;101782.25;5213089;28;20044;-76
2022/03/07 02:13:46;;;;;;;8.95;4.60;;;;;;;2.07;80.88;101787.22;5215440;28;20103;-78
2022/03/07 02:16:17;;;;;;;6.63;4.07;;;;;;;2.01;81.47;101784.53;5213985;28;20094;-78
2022/03/07 02:18:47;;;;;;;7.55;4.50;;;;;;;2.16;81.41;101787.38;5214299;28;20021;-79
2022/03/07 02:21:18;;;;;;;8.77;5.07;;;;;;;1.96;80.83;101793.91;5214976;28;20036;-78
2022/03/07 02:23:49;;;;;;;8.48;4.47;;;;;;;2.30;80.54;101793.66;5216508;28;20168;-76
2022/03/07 02:26:19;;;;;;;7.90;4.65;;;;;;;2.20;79.83;101791.75;5216791;28;20029;-77
2022/03/07 02:28:49;;;;;;;8.38;4.57;;;;;;;2.12;79.72;101781.31;5214036;28;20104;-78
2022/03/07 02:31:21;;;;;;;6.97;4.18;;;;;;;2.02;81.42;101779.38;5215745;28;20033;-80
2022/03/07 02:33:51;;;;;;;8.05;4.30;;;;;;;2.03;81.33;101781.13;5213107;28;20052;-78
2022/03/07 02:36:22;;;;;;;7.50;4.28;;;;;;;2.09;80.90;101775.22;5212688;28;20097;-79
2022/03/07 02:38:52;;;;;;;7.20;4.38;;;;;;;2.18;80.20;101776.25;5216259;28;20029;-79
2022/03/07 02:41:22;;;;;;;8.00;4.78;;;;;;;2.17;80.49;101776.22;5212282;28;20026;-78
2022/03/07 02:43:53;;;;;;;9.02;4.55;;;;;;;1.95;81.08;101781.81;5215033;28;20120;-77
2022/03/07 02:46:23;;;;;;;6.88;4.78;;;;;;;1.92;81.50;101787.81;5212905;28;20029;-78
2022/03/07 02:48:53;;;;;;;9.90;5.00;;;;;;;1.93;81.74;101776.66;5217349;28;20021;-78
2022/03/07 02:51:24;;;;;;;8.10;4.88;;;;;;;2.11;81.90;101770.94;5213423;28;20025;-78
2022/03/07 02:53:54;;;;;;;8.85;4.85;;;;;;;2.00;81.42;101775.06;5215628;28;20017;-78
2022/03/07 02:56:24;;;;;;;8.93;5.25;;;;;;;2.04;80.84;101771.69;5212832;28;20036;-79
2022/03/07 02:58:55;;;;;;;7.90;4.78;;;;;;;2.21;81.53;101772.84;5216931;28;20025;-78
2022/03/07 03:01:25;;;;;;;8.85;5.57;;;;;;;2.32;80.90;101779.06;5213696;28;20029;-80
2022/03/07 03:03:55;;;;;;;9.27;4.72;;;;;;;2.30;80.71;101779.03;5213526;28;20032;-81
2022/03/07 03:06:26;;;;;;;7.18;4.88;;;;;;;2.03;80.84;101773.38;5214935;28;20114;-80
2022/03/07 03:08:56;;;;;;;10.27;5.10;;;;;;;1.81;82.18;101783.31;5216547;28;20032;-79
2022/03/07 03:11:28;;;;;;;9.70;4.70;;;;;;;2.07;81.49;101784.63;5212836;28;20032;-76
2022/03/07 03:13:59;;;;;;;8.15;5.10;;;;;;;1.88;81.58;101791.19;5215836;28;20021;-79
2022/03/07 03:16:29;;;;;;;7.95;4.63;;;;;;;1.74;82.25;101791.75;5213172;28;20021;-80
2022/03/07 03:18:59;;;;;;;7.30;4.55;;;;;;;1.73;82.99;101794.31;5215611;28;20035;-80
2022/03/07 03:21:30;;;;;;;7.78;4.75;;;;;;;1.59;84.45;101791.44;5217517;28;20029;-80
2022/03/07 03:24:00;;;;;;;7.22;4.65;;;;;;;1.68;84.48;101786.47;5218589;28;20032;-80
2022/03/07 03:26:31;;;;;;;9.35;5.10;;;;;;;1.64;84.23;101788.97;5216830;28;20028;-80
2022/03/07 03:29:02;;;;;;;7.03;4.28;;;;;;;1.56;84.26;101791.38;5213078;28;20025;-80
2022/03/07 03:31:33;;;;;;;8.35;4.93;;;;;;;1.65;83.81;101788.13;5216493;28;20029;-80
2022/03/07 03:34:03;;;;;;;8.15;4.88;;;;;;;1.68;83.65;101790.75;5213638;28;20021;-78
2022/03/07 03:36:34;;;;;;;8.25;4.75;;;;;;;1.60;84.27;101787.16;5215015;28;20025;-78
2022/03/07 03:39:04;;;;;;;8.90;4.90;;;;;;;1.57;85.09;101790.53;5212440;28;20029;-80
2022/03/07 03:41:34;;;;;;;8.18;4.78;;;;;;;1.57;84.84;101782.81;5214480;28;20048;-80
2022/03/07 03:44:05;;;;;;;8.02;4.93;;;;;;;1.39;85.01;101790.16;5215817;28;20429;-80
2022/03/07 03:46:37;;;;;;;9.48;4.85;;;;;;;1.35;85.88;101785.81;5213072;28;20036;-77
2022/03/07 03:49:07;;;;;;;7.60;4.57;;;;;;;1.28;86.30;101777.91;5213109;28;20116;-80
2022/03/07 03:51:38;;;;;;;8.00;4.38;;;;;;;1.24;86.25;101779.56;5215905;28;20117;-80
2022/03/07 03:54:08;;;;;;;8.93;4.97;;;;;;;1.09;87.05;101778.38;5214425;28;20052;-80
2022/03/07 03:56:40;;;;;;;8.10;4.97;;;;;;;1.12;87.01;101776.75;5212971;28;20043;-80
2022/03/07 03:59:10;;;;;;;7.82;4.68;;;;;;;1.00;86.91;101771.31;5213604;28;20525;-80
2022/03/07 04:01:44;;;;;;;7.40;4.90;;;;;;;0.90;87.27;101768.50;5210416;28;20025;-79
2022/03/07 04:04:15;;;;;;;6.55;4.45;;;;;;;0.62;90.19;101774.75;5215334;28;20040;-80
2022/03/07 04:06:45;;;;;;;8.90;4.90;;;;;;;0.57;90.04;101771.16;5216067;28;20040;-80
2022/03/07 04:09:17;;;;;;;8.00;4.75;;;;;;;0.39;90.58;101768.16;5213090;28;20029;-80
2022/03/07 04:11:49;;;;;;;9.48;5.13;;;;;;;0.39;91.54;101772.44;5214956;28;20370;-80
2022/03/07 04:14:19;;;;;;;9.65;5.38;;;;;;;0.32;91.59;101774.00;5213981;28;20025;-79
2022/03/07 04:16:50;;;;;;;9.18;5.00;;;;;;;0.43;91.49;101770.00;5215987;28;20032;-80
2022/03/07 04:19:20;;;;;;;8.13;5.10;;;;;;;0.34;89.73;101774.00;5212860;28;20236;-79
2022/03/07 04:21:52;;;;;;;9.23;5.35;;;;;;;0.20;91.43;101775.41;5215763;28;20029;-83
2022/03/07 04:24:22;;;;;;;8.00;4.78;;;;;;;0.09;91.89;101781.97;5219020;28;20093;-80
2022/03/07 04:26:52;;;;;;;11.00;5.63;;;;;;;0.09;93.14;101787.97;5212045;28;20060;-80
2022/03/07 04:29:23;;;;;;;10.02;4.93;;;;;;;0.15;92.50;101777.84;5216378;28;20032;-80
2022/03/07 04:31:53;;;;;;;10.48;5.30;;;;;;;0.17;92.41;101776.19;5211019;28;20052;-79
2022/03/07 04:34:24;;;;;;;9.93;5.32;;;;;;;0.11;92.95;101783.75;5216074;28;20025;-79
2022/03/07 04:36:54;;;;;;;8.68;5.32;;;;;;;-0.02;94.01;101797.09;5215313;28;20490;-80
2022/03/07 04:39:24;;;;;;;10.10;4.97;;;;;;;-0.06;93.91;101798.69;5214829;28;20185;-79
2022/03/07 04:41:54;;;;;;;10.55;4.90;;;;;;;-0.08;93.99;101798.63;5210771;28;20037;-80
2022/03/07 04:44:25;;;;;;;8.93;5.32;;;;;;;-0.10;94.43;101796.84;5215741;28;20686;-79
2022/03/07 04:46:55;;;;;;;9.18;5.38;;;;;;;-0.14;94.63;101795.03;5210941;28;20021;-79
2022/03/07 04:49:25;;;;;;;8.02;5.25;;;;;;;0.25;93.86;101784.94;5215516;28;20402;-79
2022/03/07 04:51:56;;;;;;;12.48;5.40;;;;;;;0.17;93.19;101795.84;5214462;28;20021;-79
2022/03/07 04:54:26;;;;;;;11.98;5.78;;;;;;;0.04;94.99;101793.81;5213475;28;20479;-80
2022/03/07 04:56:56;;;;;;;10.75;5.90;;;;;;;-0.09;96.06;101796.00;5213800;28;20676;-79
2022/03/07 04:59:26;;;;;;;8.90;5.50;;;;;;;-0.22;96.84;101793.97;5211085;28;20116;-81
2022/03/07 05:01:57;;;;;;;10.30;5.82;;;;;;;-0.38;97.97;101804.66;5211536;28;20444;-79
2022/03/07 05:04:27;;;;;;;10.80;5.80;;;;;;;-0.47;99.67;101809.50;5214711;28;20033;-78
2022/03/07 05:06:57;;;;;;;11.50;5.72;;;;;;;-0.51;99.71;101810.25;5211694;28;20044;-78
2022/03/07 05:09:28;;;;;;;10.95;6.00;;;;;;;-0.53;100.00;101819.63;5211052;28;20026;-77
2022/03/07 05:11:59;;;;;;;9.25;5.75;;;;;;;-0.56;100.00;101822.09;5209973;28;20024;-75
2022/03/07 05:14:29;;;;;;;10.35;5.93;;;;;;;-0.57;100.00;101825.50;5211771;28;20036;-80
2022/03/07 05:16:59;;;;;;;9.20;6.10;;;;;;;-0.52;100.00;101821.34;5214050;28;20029;-79
2022/03/07 05:19:30;;;;;;;10.15;6.13;;;;;;;-0.60;99.73;101825.38;5211712;28;20033;-80
2022/03/07 05:22:01;;;;;;;8.68;6.15;;;;;;;-0.64;100.00;101829.59;5211371;28;20456;-79
2022/03/07 05:24:31;;;;;;;10.00;5.85;;;;;;;-0.67;100.00;101832.06;5213626;28;20032;-80
2022/03/07 05:27:02;;;;;;;10.95;5.25;;;;;;;-0.68;100.00;101832.00;5212657;28;20518;-78
2022/03/07 05:29:32;;;;;;;9.68;5.70;;;;;;;-0.70;100.00;101834.50;5215149;28;20025;-80
2022/03/07 05:32:03;;;;;;;9.35;5.63;;;;;;;-0.67;100.00;101821.78;5212607;28;20426;-80
2022/03/07 05:34:33;;;;;;;10.93;5.85;;;;;;;-0.76;100.00;101834.34;5222336;28;20131;-81
2022/03/07 05:37:04;;;;;;;10.98;5.95;;;;;;;-0.80;100.00;101832.50;5213787;28;20367;-81
2022/03/07 05:39:34;;;;;;;9.57;5.65;;;;;;;-0.81;100.00;101830.78;5212572;28;20045;-80
2022/03/07 05:42:05;;;;;;;8.95;5.93;;;;;;;-0.83;99.84;101836.69;5216376;28;20032;-80
2022/03/07 05:44:35;;;;;;;10.45;6.20;;;;;;;-0.92;98.77;101836.41;5215935;28;20491;-80
2022/03/07 05:47:06;;;;;;;10.75;6.00;;;;;;;-0.94;99.56;101838.91;5217336;28;20031;-78
2022/03/07 05:49:36;;;;;;;9.30;5.88;;;;;;;-0.97;99.71;101841.41;5214878;28;20021;-79
2022/03/07 05:52:06;;;;;;;9.30;6.03;;;;;;;-0.95;99.98;101841.44;5217204;28;20080;-79
2022/03/07 05:54:37;;;;;;;10.82;6.63;;;;;;;-0.93;100.00;101844.94;5217500;28;20020;-80
2022/03/07 05:57:07;;;;;;;9.50;5.93;;;;;;;-0.91;99.38;101853.53;5214986;28;20427;-79
2022/03/07 05:59:37;;;;;;;11.57;6.80;;;;;;;-0.92;99.15;101852.66;5217951;28;20016;-79
2022/03/07 06:02:08;;;;;;;10.63;5.80;;;;;;;-1.00;98.43;101848.13;5217685;28;20021;-78
2022/03/07 06:04:38;;;;;;;8.18;5.80;;;;;;;-0.99;99.25;101847.28;5217845;28;20032;-79
2022/03/07 06:07:08;;;;;;;11.02;6.13;;;;;;;-0.92;98.75;101851.81;5216325;28;20582;-79
2022/03/07 06:09:39;;;;;;;9.48;6.05;;;;;;;-0.97;97.80;101853.34;5214084;28;20048;-79
2022/03/07 06:12:09;;;;;;;10.02;5.80;;;;;;;-0.96;98.34;101852.50;5214616;28;20021;-78
2022/03/07 06:14:39;;;;;;;10.48;5.80;;;;;;;-1.03;98.91;101846.31;5213253;28;20371;-80
2022/03/07 06:17:10;;;;;;;9.65;5.82;;;;;;;-1.01;99.12;101852.41;5215217;28;20108;-79
2022/03/07 06:19:40;;;;;;;10.55;6.25;;;;;;;-0.92;100.00;101846.69;5215643;28;20048;-80
2022/03/07 06:22:10;;;;;;;9.80;5.65;;;;;;;-0.78;99.99;101850.50;5212711;28;20025;-81
2022/03/07 06:24:41;;;;;;;11.15;6.20;;;;;;;-0.68;99.67;101852.53;5215279;28;20021;-80
2022/03/07 06:27:11;;;;;;;10.45;5.63;;;;;;;-0.68;99.57;101847.41;5210197;28;20457;-80
2022/03/07 06:29:41;;;;;;;11.77;6.18;;;;;;;-0.58;99.81;101841.72;5215425;28;20037;-82
2022/03/07 06:32:11;;;;;;;10.15;5.82;;;;;;;-0.43;99.20;101842.13;5216166;28;20080;-81
2022/03/07 06:34:42;;;;;;;9.95;5.60;;;;;;;-0.56;98.96;101845.22;5214755;28;20379;-81
2022/03/07 06:37:12;;;;;;;9.38;5.45;;;;;;;-0.72;100.00;101843.88;5216816;28;20025;-80
2022/03/07 06:39:43;;;;;;;9.02;5.50;;;;;;;-0.69;100.00;101850.78;5219198;28;20029;-81
2022/03/07 06:42:13;;;;;;;9.60;6.07;;;;;;;-0.61;100.00;101852.75;5216076;28;20503;-81
2022/03/07 06:44:43;;;;;;;10.85;6.18;;;;;;;-0.50;100.00;101848.81;5216864;28;20053;-80
2022/03/07 06:47:14;;;;;;;9.07;6.25;;;;;;;-0.49;100.00;101844.53;5219181;28;20034;-81
2022/03/07 06:49:47;;;;;;;10.18;6.03;;;;;;;-0.51;100.00;101846.19;5214558;28;20678;-80
2022/03/07 06:52:17;;;;;;;10.27;5.97;;;;;;;-0.41;100.00;101851.63;5219648;28;20025;-78
2022/03/07 06:54:48;;;;;;;11.73;6.55;;;;;;;-0.44;100.00;101854.13;5215287;28;20029;-80
2022/03/07 06:57:19;;;;;;;10.07;5.97;;;;;;;-0.47;100.00;101856.59;5221720;28;20028;-81
2022/03/07 06:59:50;;;;;;;9.57;6.05;;;;;;;-0.30;100.00;101859.63;5219576;28;20044;-81
2022/03/07 07:02:20;;;;;;;10.07;6.13;;;;;;;-0.35;99.93;101868.91;5213609;28;20084;-81
2022/03/07 07:04:51;;;;;;;8.90;5.65;;;;;;;-0.35;100.00;101858.66;5220062;28;20047;-80
2022/03/07 07:07:21;;;;;;;10.82;6.40;;;;;;;-0.19;100.00;101866.81;5214092;28;20101;-81
2022/03/07 07:09:51;;;;;;;10.40;6.22;;;;;;;-0.29;100.00;101863.94;5217128;28;20021;-81
2022/03/07 07:12:22;;;;;;;13.75;6.65;;;;;;;-0.18;100.00;101872.84;5214737;28;20036;-82
2022/03/07 07:14:52;;;;;;;11.65;6.90;;;;;;;-0.07;100.00;101876.59;5218724;28;20106;-81
2022/03/07 07:17:23;;;;;;;13.25;6.63;;;;;;;-0.02;100.00;101881.00;5213100;28;20029;-80
2022/03/07 07:19:53;;;;;;;10.98;6.75;;;;;;;0.26;100.00;101880.94;5217098;28;20094;-80
2022/03/07 07:22:23;;;;;;;10.18;6.32;;;;;;;0.34;100.00;101888.00;5216051;28;20041;-81
2022/03/07 07:24:53;;;;;;;12.82;6.38;;;;;;;0.33;100.00;101890.53;5214956;28;20022;-81
2022/03/07 07:27:24;;;;;;;10.13;6.10;;;;;;;0.35;100.00;101884.59;5215286;28;20026;-82
2022/03/07 07:29:54;;;;;;;11.55;6.22;;;;;;;0.42;100.00;101883.91;5218177;28;20549;-82
2022/03/07 07:32:26;;;;;;;11.38;6.13;;;;;;;0.99;100.00;101885.38;5215325;28;20020;-83
2022/03/07 07:34:56;;;;;;;10.65;6.25;;;;;;;3.56;90.45;101876.47;5217979;28;20140;-82
2022/03/07 07:37:26;;;;;;;7.95;5.13;;;;;;;5.40;78.47;101871.41;5214796;28;20029;-81
2022/03/07 07:39:56;;;;;;;9.15;5.38;;;;;;;5.65;76.22;101864.63;5218157;28;20031;-82
2022/03/07 07:42:27;;;;;;;8.73;4.60;;;;;;;6.35;72.98;101869.25;5214646;28;20439;-82
2022/03/07 07:44:57;;;;;;;8.48;4.78;;;;;;;7.29;69.05;101864.94;5218027;28;20641;-81
2022/03/07 07:47:27;;;;;;;9.23;4.35;;;;;;;6.01;74.95;101872.59;5216200;28;20033;-81
2022/03/07 07:49:57;;;;;;;6.85;4.30;;;;;;;6.61;71.36;101862.38;5218890;28;20109;-81
2022/03/07 07:52:28;;;;;;;7.72;4.43;;;;;;;8.17;67.53;101861.16;5218347;28;20304;-82
2022/03/07 07:54:58;;;;;;;6.72;4.30;;;;;;;9.31;61.94;101847.28;5214132;28;20029;-82
2022/03/07 07:57:28;;;;;;;7.10;4.35;;;;;;;8.66;64.42;101857.41;5216753;28;20114;-80
2022/03/07 07:59:59;;;;;;;7.78;3.95;;;;;;;10.03;59.54;101856.91;5216022;28;20025;-82
2022/03/07 08:02:29;;;;;;;6.95;3.83;;;;;;;9.60;60.82;101855.63;5214492;28;20056;-82
2022/03/07 08:04:59;;;;;;;7.57;4.10;;;;;;;10.47;61.08;101857.13;5230817;28;20087;-81
2022/03/07 08:07:30;;;;;;;8.40;4.28;;;;;;;13.13;55.75;101846.47;5227615;28;20059;-81
2022/03/07 08:10:01;;;;;;;7.60;4.20;;;;;;;13.98;51.98;101845.84;5221757;28;20116;-81
2022/03/07 08:12:32;;;;;;;6.88;4.03;;;;;;;11.79;56.01;101853.94;5217982;28;20164;-82
2022/03/07 08:15:05;;;;;;;8.65;4.35;;;;;;;15.12;49.20;101838.69;5218186;28;20079;-83
2022/03/07 08:17:35;;;;;;;6.72;4.00;;;;;;;13.36;49.71;101851.97;5217077;28;20033;-82
2022/03/07 08:20:07;;;;;;;7.60;4.03;;;;;;;11.25;54.09;101860.19;5218125;28;20381;-81
2022/03/07 08:22:37;;;;;;;6.57;3.70;;;;;;;13.77;50.63;101857.00;5213295;28;20032;-81
2022/03/07 08:25:07;;;;;;;8.05;3.40;;;;;;;15.10;47.87;101848.41;5207998;28;20030;-82
2022/03/07 08:27:38;;;;;;;6.95;4.40;;;;;;;15.76;47.07;101847.84;5215132;28;20380;-80
2022/03/07 08:30:12;;;;;;;6.10;4.10;;;;;;;14.16;49.31;101847.97;5222571;28;20031;-83
2022/03/07 08:32:42;;;;;;;6.13;3.60;;;;;;;15.84;45.34;101840.53;5224465;28;20044;-82
2022/03/07 08:35:13;;;;;;;8.52;4.40;;;;;;;13.56;47.96;101854.97;5220312;28;20036;-80
2022/03/07 08:37:45;;;;;;;6.40;3.88;;;;;;;13.05;49.84;101851.06;5217884;28;20031;-83
2022/03/07 08:40:17;;;;;;;6.38;3.78;;;;;;;14.91;48.27;101841.16;5217519;28;20025;-82
2022/03/07 08:42:48;;;;;;;7.50;4.00;;;;;;;16.08;45.53;101832.53;5215572;28;20257;-80
2022/03/07 08:45:21;;;;;;;7.10;4.47;;;;;;;12.85;50.11;101850.66;5217173;28;20036;-81
2022/03/07 08:47:52;;;;;;;9.07;4.25;;;;;;;10.79;55.31;101855.78;5215876;28;20554;-80
2022/03/07 08:50:22;;;;;;;6.30;4.38;;;;;;;13.68;49.58;101847.59;5219740;28;20030;-82
2022/03/07 08:52:53;;;;;;;8.43;4.03;;;;;;;14.59;47.22;101853.66;5216470;28;20028;-80
2022/03/07 08:55:23;;;;;;;7.47;4.00;;;;;;;13.25;50.46;101856.69;5220250;28;20112;-82
2022/03/07 08:57:53;;;;;;;7.75;3.97;;;;;;;14.72;47.59;101852.31;5213865;28;20089;-83
2022/03/07 09:00:24;;;;;;;6.80;4.05;;;;;;;16.30;46.09;101848.41;5218747;28;20490;-80
2022/03/07 09:02:54;;;;;;;6.07;3.92;;;;;;;14.99;46.47;101844.44;5212747;28;20027;-81
2022/03/07 09:05:24;;;;;;;5.72;3.90;;;;;;;13.68;50.55;101857.22;5237363;28;20060;-80
2022/03/07 09:07:55;;;;;;;8.82;3.97;;;;;;;11.82;52.33;101866.13;5214342;28;20494;-80
2022/03/07 09:10:25;;;;;;;6.05;3.80;;;;;;;11.66;52.74;101862.97;5214100;28;20029;-81
2022/03/07 09:12:55;;;;;;;6.85;3.90;;;;;;;12.77;50.90;101860.47;5214315;28;20152;-79
2022/03/07 09:15:26;;;;;;;6.53;3.92;;;;;;;12.63;50.96;101859.09;5216455;28;20020;-80
2022/03/07 09:17:56;;;;;;;6.38;4.10;;;;;;;11.39;54.22;101855.59;5213055;28;20021;-81
2022/03/07 09:20:27;;;;;;;8.63;4.20;;;;;;;9.79;58.90;101865.00;5217755;28;20099;-82
2022/03/07 09:22:57;;;;;;;8.65;4.65;;;;;;;9.83;58.21;101864.94;5215762;28;20082;-81
2022/03/07 09:25:27;;;;;;;8.95;4.38;;;;;;;9.10;59.46;101857.03;5217784;28;20032;-80
2022/03/07 09:27:58;;;;;;;10.98;4.22;;;;;;;8.44;61.23;101862.78;5217814;28;20038;-78
2022/03/07 09:30:28;;;;;;;9.02;4.65;;;;;;;8.74;61.17;101850.38;5216062;28;20031;-79
2022/03/07 09:33:03;;;;;;;6.43;3.97;;;;;;;7.90;63.52;101858.69;5217150;28;20096;-78
2022/03/07 09:35:33;;;;;;;7.28;4.00;;;;;;;7.53;64.99;101861.44;5215342;28;20029;-80
2022/03/07 09:38:04;;;;;;;7.80;4.10;;;;;;;7.38;64.17;101848.47;5213163;28;20398;-80
2022/03/07 09:40:34;;;;;;;7.90;4.25;;;;;;;6.97;67.04;101852.84;5213905;28;20071;-80
2022/03/07 09:43:05;;;;;;;8.35;4.15;;;;;;;7.38;65.51;101846.72;5211469;28;20387;-81
2022/03/07 09:45:35;;;;;;;8.05;4.03;;;;;;;7.18;66.11;101854.56;5214969;28;20029;-79
2022/03/07 09:48:06;;;;;;;12.25;5.75;;;;;;;7.90;64.58;101848.25;5211456;28;20456;-80
2022/03/07 09:54:06;;;;;;;10.07;4.55;;;;;;;7.88;64.13;101857.81;5195051;28;20084;-80
2022/03/07 09:56:37;;;;;;;11.32;4.38;;;;;;;7.66;65.79;101848.38;5211776;28;20563;-80
2022/03/07 09:59:08;;;;;;;8.52;4.50;;;;;;;7.60;64.67;101852.72;5205013;28;20056;-80
2022/03/07 10:01:38;;;;;;;7.93;4.20;;;;;;;7.83;64.55;101853.50;5212394;28;20104;-81
2022/03/07 10:04:11;;;;;;;29.48;12.52;;;;;;;8.22;64.20;101855.97;5216454;28;20076;-81
2022/03/07 10:06:51;;;;;;;10.55;6.07;;;;;;;8.42;63.55;101846.28;5218366;28;20033;-80
2022/03/07 10:09:23;;;;;;;8.77;4.50;;;;;;;8.30;63.62;101855.06;5212305;28;20499;-79
2022/03/07 10:12:00;;;;;;;10.35;3.78;;;;;;;7.88;63.54;101849.16;5214506;28;20120;-80
2022/03/07 10:14:42;;;;;;;8.30;3.53;;;;;;;7.61;63.60;101847.53;5211960;28;20021;-79
2022/03/07 10:17:26;;;;;;;6.95;3.58;;;;;;;7.18;63.82;101849.38;5214593;28;20034;-81
2022/03/07 10:20:02;;;;;;;8.57;4.32;;;;;;;7.61;65.03;101851.84;5211589;28;20147;-81
2022/03/07 10:22:33;;;;;;;9.18;4.82;;;;;;;7.92;65.21;101858.69;5222106;28;20021;-80
2022/03/07 10:25:07;;;;;;;6.78;4.25;;;;;;;7.80;63.94;101850.91;5216949;28;20079;-80
2022/03/07 10:27:44;;;;;;;7.38;4.03;;;;;;;7.40;65.21;101850.19;5213395;28;20396;-79
2022/03/07 10:30:20;;;;;;;6.97;4.03;;;;;;;7.75;64.09;101852.69;5216855;28;20039;-79
2022/03/07 10:33:05;;;;;;;10.13;4.72;;;;;;;7.69;66.61;101853.56;5213023;28;20676;-79
2022/03/07 10:35:48;;;;;;;9.55;4.10;;;;;;;7.22;66.48;101858.00;5216072;28;20033;-80
2022/03/07 10:38:21;;;;;;;10.05;5.60;;;;;;;7.76;65.31;101852.69;5212299;28;20028;-80
2022/03/07 10:40:54;;;;;;;8.90;4.95;;;;;;;7.67;64.65;101852.69;5217588;28;20025;-80
2022/03/07 10:43:24;;;;;;;8.63;4.90;;;;;;;7.89;64.92;101851.75;5213576;28;20368;-80
2022/03/07 10:45:58;;;;;;;8.57;4.85;;;;;;;7.79;65.78;101854.41;5217515;28;20040;-79
2022/03/07 10:48:41;;;;;;;8.50;4.70;;;;;;;7.44;65.98;101859.72;5212361;28;20676;-80
2022/03/07 10:51:17;;;;;;;9.43;4.53;;;;;;;7.60;65.14;101850.13;5216502;28;20555;-79
2022/03/07 10:53:48;;;;;;;10.45;4.68;;;;;;;7.86;65.23;101846.56;5221255;28;20020;-80
2022/03/07 10:56:21;;;;;;;8.40;4.68;;;;;;;7.98;64.07;101851.72;5211500;28;20067;-79
2022/03/07 10:58:53;;;;;;;6.57;3.88;;;;;;;7.75;64.79;101847.47;5215623;28;20528;-79
2022/03/07 11:01:32;;;;;;;7.90;3.85;;;;;;;7.84;63.80;101844.84;5211381;28;20067;-80
2022/03/07 11:04:02;;;;;;;5.93;3.47;;;;;;;7.04;66.30;101852.00;5214758;28;20032;-79
2022/03/07 11:06:33;;;;;;;4.95;3.00;;;;;;;7.22;66.13;101838.97;5215864;28;20016;-80
2022/03/07 11:09:03;;;;;;;10.38;3.45;;;;;;;7.30;64.42;101843.28;5212880;28;20033;-79
2022/03/07 11:11:33;;;;;;;10.68;5.53;;;;;;;7.43;64.75;101836.31;5215970;28;20024;-80
2022/03/07 11:14:04;;;;;;;7.40;3.63;;;;;;;7.31;63.82;101836.31;5213962;28;20023;-80
2022/03/07 11:16:36;;;;;;;9.07;4.90;;;;;;;7.43;64.92;101828.50;5214976;28;20056;-80
2022/03/07 11:19:07;;;;;;;8.02;4.30;;;;;;;7.55;65.22;101823.28;5213210;28;20033;-80
2022/03/07 11:21:41;;;;;;;8.02;3.95;;;;;;;7.42;65.01;101822.44;5216811;28;20025;-80
2022/03/07 11:24:12;;;;;;;8.15;4.22;;;;;;;7.56;65.51;101825.84;5211100;28;20080;-80
2022/03/07 11:26:43;;;;;;;5.85;4.05;;;;;;;7.77;65.29;101819.72;5215233;28;20487;-79
2022/03/07 11:29:15;;;;;;;5.88;3.10;;;;;;;7.57;63.76;101827.63;5243163;22;20507;-77
2022/03/07 11:31:46;;;;;;;7.18;3.47;;;;;;;7.58;63.13;101818.94;5241910;28;20090;-78
2022/03/07 11:34:16;;;;;;;12.23;3.78;;;;;;;7.46;65.12;101808.56;5236763;28;20041;-77
2022/03/07 11:36:49;;;;;;;7.60;3.85;;;;;;;7.68;65.50;101809.34;5236516;28;20028;-77
2022/03/07 11:39:45;;;;;;;8.40;4.60;;;;;;;7.87;64.88;101801.44;5216325;28;20553;-77
2022/03/07 11:42:18;;;;;;;7.50;3.05;;;;;;;7.83;63.84;101804.06;5208636;28;20032;-77
2022/03/07 11:44:49;;;;;;;5.75;2.90;;;;;;;7.65;63.15;101807.63;5218578;28;20037;-78
2022/03/07 11:47:20;;;;;;;7.20;3.53;;;;;;;7.66;65.19;101796.34;5221922;28;20045;-77